Nearby METAR Reports

 

EDNY - Friedrichshafen, Germany
Distance from station: O 31km
aktuell: 31.01.2015 01:20
sehr leichter Niederschlag, Showers, geschlossene Wolkendecke
sehr leichter Niederschlag, Showers, geschlossene Wolkendecke
 Wind von W
Wind: W 13 km/h
Temperatur: 1°C
gefühlte Temperatur: -3°C
Taupunkt: -2°C
Luftfeuchte: 81%
Luftdruck: 982 hPa
Zusammenfassung: sehr leichter Niederschlag, Showers
Clouds: geschlossene Wolkendecke
Visibility: 10 km
Cloud details: stark bewölkt 396 m
geschlossene Wolkendecke 640 m
2015/01/31 00:20 EDNY 310020Z AUTO 26007KT 9999 -SHRA BKN013 OVC021 01/M02 Q0982
LSZR - Rheineck/Altenrh, Switzerland
Distance from station: SO 42km
aktuell: 31.01.2015 01:20
Light snow, Showers
Light snow, Showers
 Wind von W
Wind: W 13 km/h
Zusammenfassung: Light snow, Showers
Visibility: 3 km
2015/01/31 00:20 LSZR 310020Z AUTO 26007KT 230V300 3000 -SHSN BKN/// 01/M01 Q0982
LSZH - Zurich-Kloten (a, Switzerland
Distance from station: WSW 49km
aktuell: 31.01.2015 00:50
Light snow, Showers, stark bewölkt
Light snow, Showers, stark bewölkt
 Wind von SW
Wind: SW 11 km/h
Temperatur: 1°C
gefühlte Temperatur: -2°C
Taupunkt: -1°C
Luftfeuchte: 87%
Luftdruck: 982 hPa
Zusammenfassung: Light snow, Showers
Clouds: stark bewölkt
Visibility: 10 km
Cloud details: Few Clouds 244 m
teilweise bewölkt 610 m
stark bewölkt 1280 m
2015/01/30 23:50 LSZH 302350Z 23006KT 9999 -SHSN FEW008 SCT020 BKN042 01/M01 Q0982 R88/29//// NOSIG
 
EDTD - Donaueschingen, Germany
Distance from station: NW 53km
aktuell: 30.04.2014 18:20
NOT Current
sehr leichter Niederschlag, geschlossene Wolkendecke
sehr leichter Niederschlag, geschlossene Wolkendecke
 Wind von SSW
Wind: SSW 9 km/h
Temperatur: 10°C
gefühlte Temperatur: 9°C
Taupunkt: 10°C
Luftfeuchte: 100%
Luftdruck: 1011 hPa
Zusammenfassung: sehr leichter Niederschlag
Clouds: geschlossene Wolkendecke
Visibility: 9 km
Cloud details: stark bewölkt 213 m
geschlossene Wolkendecke 335 m
2014/04/30 16:20 EDTD 301620Z 20005KT 9000 -RA BKN007 OVC011 10/10 Q1011 LAST ?
ETGZ - Messstetten, Germany
Distance from station: N 54km
aktuell: 30.09.2013 14:20
NOT Current
geschlossene Wolkendecke
geschlossene Wolkendecke
 Wind von varies
Wind: varies 4 km/h
Temperatur: 8°C
Taupunkt: 7°C
Luftfeuchte: 93%
Luftdruck: 1007 hPa
Clouds: geschlossene Wolkendecke
Visibility: 10 km
Cloud details: geschlossene Wolkendecke 213 m
2013/09/30 12:20 ETGZ 301220Z VRB02KT 9999 OVC007 08/07 Q1007 GRN
LOIH - Hohenems-Dornbir, Austria
Distance from station: SO 57km
aktuell: 30.01.2015 16:00
NOT Current
stark bewölkt
stark bewölkt
 Wind von SW
Wind: SW 6 km/h
Temperatur: 3°C
Taupunkt: -2°C
Luftfeuchte: 70%
Luftdruck: 981 hPa
Clouds: stark bewölkt
Cloud details: teilweise bewölkt 152 m
stark bewölkt 457 m
2015/01/30 15:00 LOIH 301500Z 22003KT 10KM SCT005SC BKN015SC 03/M02 Q0981 RMK OVC
 
ETHL - Laupheim (ger-Ar, Germany
Distance from station: NO 84km
aktuell: 31.01.2015 01:20
Light snow, stark bewölkt
Light snow, stark bewölkt
 Wind von WSW
Wind: WSW 15 km/h
Temperatur: -1°C
gefühlte Temperatur: -6°C
Taupunkt: -2°C
Luftfeuchte: 93%
Luftdruck: 980 hPa
Zusammenfassung: Light Snow
Clouds: stark bewölkt
Visibility: 9 km
Cloud details: Few Clouds 305 m
stark bewölkt 975 m
2015/01/31 00:20 ETHL 310020Z 24008KT 9000 -SN FEW010 BKN032 M01/M02 Q0980 BLU
EDJA - Memmingen Allgau, Germany
Distance from station: ONO 90km
aktuell: 30.01.2015 21:50
NOT Current
Light snow, stark bewölkt
Light snow, stark bewölkt
 Wind von SW
Wind: SW 30 km/h
Temperatur: -2°C
gefühlte Temperatur: -9°C
Taupunkt: -3°C
Luftfeuchte: 93%
Luftdruck: 978 hPa
Zusammenfassung: Light Snow
Clouds: stark bewölkt
Visibility: 7 km
Cloud details: stark bewölkt 152 m
stark bewölkt 640 m
2015/01/30 20:50 EDJA 302050Z 22016KT 7000 -SN BKN005 BKN021 M02/M03 Q0978
LSME - Emmen, Switzerland
Distance from station: SW 90km
aktuell: 31.01.2015 00:50
geschlossene Wolkendecke
geschlossene Wolkendecke
 Wind von W
Wind: W 6 km/h
Temperatur: 2°C
Taupunkt: -3°C
Luftfeuchte: 70%
Luftdruck: 982 hPa
Clouds: geschlossene Wolkendecke
Visibility: 16 miles
Cloud details: Few Clouds 1097 m
stark bewölkt 1615 m
geschlossene Wolkendecke 1951 m
2015/01/30 23:50 LSME 302350Z AUTO 26003KT 230V290 9999NDV FEW036 BKN053 OVC064 02/M03 Q0982 RMK WHT
 
LSZC - Buochs, Switzerland
Distance from station: SSW 98km
aktuell: 31.01.2015 01:20
Light snow, geschlossene Wolkendecke
Light snow, geschlossene Wolkendecke
 Wind von S
Wind: S 7 km/h
Temperatur: 0°C
gefühlte Temperatur: -3°C
Taupunkt: -1°C
Luftfeuchte: 93%
Luftdruck: 983 hPa
Zusammenfassung: Light Snow
Clouds: geschlossene Wolkendecke
Visibility: 4 km
Cloud details: teilweise bewölkt 274 m
teilweise bewölkt 427 m
geschlossene Wolkendecke 1524 m
2015/01/31 00:20 LSZC 310020Z AUTO 17004KT 060V210 3500 -SN SCT009 SCT014 OVC050 M00/M01 Q0983